sensor_id;sensor_type;location;lat;lon;timestamp;P1;durP1;ratioP1;P2;durP2;ratioP2
74369;SDS011;62805;44.644;10.942;2023-05-10T00:00:04;6.60;;;3.70;;
74369;SDS011;62805;44.644;10.942;2023-05-10T00:02:30;5.53;;;3.53;;
74369;SDS011;62805;44.644;10.942;2023-05-10T00:04:55;7.70;;;4.22;;
74369;SDS011;62805;44.644;10.942;2023-05-10T00:07:20;5.63;;;3.10;;
74369;SDS011;62805;44.644;10.942;2023-05-10T00:09:46;6.47;;;3.63;;
74369;SDS011;62805;44.644;10.942;2023-05-10T00:12:11;5.90;;;4.00;;
74369;SDS011;62805;44.644;10.942;2023-05-10T00:14:37;5.80;;;4.07;;
74369;SDS011;62805;44.644;10.942;2023-05-10T00:17:02;5.33;;;3.53;;
74369;SDS011;62805;44.644;10.942;2023-05-10T00:19:27;6.50;;;3.23;;
74369;SDS011;62805;44.644;10.942;2023-05-10T00:21:52;10.43;;;3.67;;
74369;SDS011;62805;44.644;10.942;2023-05-10T00:24:18;6.13;;;3.80;;
74369;SDS011;62805;44.644;10.942;2023-05-10T00:26:43;6.78;;;4.10;;
74369;SDS011;62805;44.644;10.942;2023-05-10T00:29:09;5.82;;;3.78;;
74369;SDS011;62805;44.644;10.942;2023-05-10T00:31:34;6.78;;;4.03;;
74369;SDS011;62805;44.644;10.942;2023-05-10T00:33:59;7.38;;;4.45;;
74369;SDS011;62805;44.644;10.942;2023-05-10T00:36:25;8.07;;;4.13;;
74369;SDS011;62805;44.644;10.942;2023-05-10T00:38:50;9.23;;;5.43;;
74369;SDS011;62805;44.644;10.942;2023-05-10T00:41:16;8.30;;;5.20;;
74369;SDS011;62805;44.644;10.942;2023-05-10T00:43:41;9.60;;;4.88;;
74369;SDS011;62805;44.644;10.942;2023-05-10T00:46:07;9.40;;;4.88;;
74369;SDS011;62805;44.644;10.942;2023-05-10T00:48:32;7.90;;;5.30;;
74369;SDS011;62805;44.644;10.942;2023-05-10T00:50:58;7.60;;;4.50;;
74369;SDS011;62805;44.644;10.942;2023-05-10T00:53:24;9.98;;;5.45;;
74369;SDS011;62805;44.644;10.942;2023-05-10T00:55:50;6.65;;;4.57;;
74369;SDS011;62805;44.644;10.942;2023-05-10T00:58:16;7.40;;;4.15;;
74369;SDS011;62805;44.644;10.942;2023-05-10T01:00:41;7.40;;;4.47;;
74369;SDS011;62805;44.644;10.942;2023-05-10T01:03:09;6.88;;;4.43;;
74369;SDS011;62805;44.644;10.942;2023-05-10T01:08:01;8.93;;;4.63;;
74369;SDS011;62805;44.644;10.942;2023-05-10T01:10:27;7.40;;;5.03;;
74369;SDS011;62805;44.644;10.942;2023-05-10T01:12:52;8.70;;;5.15;;
74369;SDS011;62805;44.644;10.942;2023-05-10T01:15:18;6.65;;;4.75;;
74369;SDS011;62805;44.644;10.942;2023-05-10T01:17:45;7.18;;;4.68;;
74369;SDS011;62805;44.644;10.942;2023-05-10T01:20:12;11.10;;;4.57;;
74369;SDS011;62805;44.644;10.942;2023-05-10T01:28:33;7.32;;;4.82;;
74369;SDS011;62805;44.644;10.942;2023-05-10T01:34:23;8.25;;;4.85;;
74369;SDS011;62805;44.644;10.942;2023-05-10T01:36:58;7.45;;;4.50;;
74369;SDS011;62805;44.644;10.942;2023-05-10T01:39:36;8.02;;;4.88;;
74369;SDS011;62805;44.644;10.942;2023-05-10T01:42:28;7.07;;;4.97;;
74369;SDS011;62805;44.644;10.942;2023-05-10T01:48:03;8.73;;;5.30;;
74369;SDS011;62805;44.644;10.942;2023-05-10T01:50:31;7.43;;;4.90;;
74369;SDS011;62805;44.644;10.942;2023-05-10T01:52:59;11.85;;;6.22;;
74369;SDS011;62805;44.644;10.942;2023-05-10T01:55:28;9.13;;;6.07;;
74369;SDS011;62805;44.644;10.942;2023-05-10T01:58:06;11.55;;;6.55;;
74369;SDS011;62805;44.644;10.942;2023-05-10T02:00:36;11.88;;;7.03;;
74369;SDS011;62805;44.644;10.942;2023-05-10T02:03:07;10.77;;;6.75;;
74369;SDS011;62805;44.644;10.942;2023-05-10T02:05:35;8.75;;;5.78;;
74369;SDS011;62805;44.644;10.942;2023-05-10T02:08:02;11.52;;;6.15;;
74369;SDS011;62805;44.644;10.942;2023-05-10T02:10:31;8.93;;;5.30;;
74369;SDS011;62805;44.644;10.942;2023-05-10T02:12:58;8.07;;;5.35;;
74369;SDS011;62805;44.644;10.942;2023-05-10T02:15:24;8.40;;;5.75;;
74369;SDS011;62805;44.644;10.942;2023-05-10T02:17:52;8.95;;;5.30;;
74369;SDS011;62805;44.644;10.942;2023-05-10T02:20:20;8.55;;;5.30;;
74369;SDS011;62805;44.644;10.942;2023-05-10T02:22:49;12.95;;;5.75;;
74369;SDS011;62805;44.644;10.942;2023-05-10T02:25:17;8.75;;;5.05;;
74369;SDS011;62805;44.644;10.942;2023-05-10T02:27:44;12.48;;;5.75;;
74369;SDS011;62805;44.644;10.942;2023-05-10T02:30:10;8.43;;;4.95;;
74369;SDS011;62805;44.644;10.942;2023-05-10T02:32:37;9.77;;;5.57;;
74369;SDS011;62805;44.644;10.942;2023-05-10T02:35:03;9.82;;;5.38;;
74369;SDS011;62805;44.644;10.942;2023-05-10T02:37:30;10.77;;;5.50;;
74369;SDS011;62805;44.644;10.942;2023-05-10T02:39:57;9.20;;;4.80;;
74369;SDS011;62805;44.644;10.942;2023-05-10T02:42:24;10.77;;;5.85;;
74369;SDS011;62805;44.644;10.942;2023-05-10T02:44:53;8.63;;;5.55;;
74369;SDS011;62805;44.644;10.942;2023-05-10T02:47:22;11.77;;;6.70;;
74369;SDS011;62805;44.644;10.942;2023-05-10T02:49:47;12.18;;;6.18;;
74369;SDS011;62805;44.644;10.942;2023-05-10T02:52:14;10.98;;;6.43;;
74369;SDS011;62805;44.644;10.942;2023-05-10T02:54:45;9.88;;;6.25;;
74369;SDS011;62805;44.644;10.942;2023-05-10T02:57:22;11.82;;;6.70;;
74369;SDS011;62805;44.644;10.942;2023-05-10T02:59:52;8.55;;;5.35;;
74369;SDS011;62805;44.644;10.942;2023-05-10T03:02:17;9.88;;;5.68;;
74369;SDS011;62805;44.644;10.942;2023-05-10T03:04:43;9.70;;;5.07;;
74369;SDS011;62805;44.644;10.942;2023-05-10T03:07:08;9.13;;;5.35;;
74369;SDS011;62805;44.644;10.942;2023-05-10T03:09:34;10.68;;;5.20;;
74369;SDS011;62805;44.644;10.942;2023-05-10T03:12:19;9.43;;;5.82;;
74369;SDS011;62805;44.644;10.942;2023-05-10T03:14:57;9.15;;;5.95;;
74369;SDS011;62805;44.644;10.942;2023-05-10T03:20:12;10.25;;;6.05;;
74369;SDS011;62805;44.644;10.942;2023-05-10T03:22:47;11.10;;;5.63;;
74369;SDS011;62805;44.644;10.942;2023-05-10T03:25:18;9.88;;;5.82;;
74369;SDS011;62805;44.644;10.942;2023-05-10T03:27:46;9.93;;;5.82;;
74369;SDS011;62805;44.644;10.942;2023-05-10T03:30:12;8.32;;;5.55;;
74369;SDS011;62805;44.644;10.942;2023-05-10T03:32:39;10.40;;;6.10;;
74369;SDS011;62805;44.644;10.942;2023-05-10T03:35:08;8.00;;;5.63;;
74369;SDS011;62805;44.644;10.942;2023-05-10T03:37:34;8.50;;;5.22;;
74369;SDS011;62805;44.644;10.942;2023-05-10T03:40:00;9.10;;;5.13;;
74369;SDS011;62805;44.644;10.942;2023-05-10T03:42:26;9.65;;;4.95;;
74369;SDS011;62805;44.644;10.942;2023-05-10T03:44:51;9.87;;;4.47;;
74369;SDS011;62805;44.644;10.942;2023-05-10T03:47:16;8.80;;;4.33;;
74369;SDS011;62805;44.644;10.942;2023-05-10T03:49:41;7.33;;;4.50;;
74369;SDS011;62805;44.644;10.942;2023-05-10T03:52:07;7.43;;;4.63;;
74369;SDS011;62805;44.644;10.942;2023-05-10T03:54:32;6.70;;;4.22;;
74369;SDS011;62805;44.644;10.942;2023-05-10T03:56:58;8.55;;;4.57;;
74369;SDS011;62805;44.644;10.942;2023-05-10T03:59:23;9.50;;;4.55;;
74369;SDS011;62805;44.644;10.942;2023-05-10T04:01:48;8.00;;;4.18;;
74369;SDS011;62805;44.644;10.942;2023-05-10T04:04:14;6.55;;;4.40;;
74369;SDS011;62805;44.644;10.942;2023-05-10T04:06:39;8.60;;;4.37;;
74369;SDS011;62805;44.644;10.942;2023-05-10T04:09:04;7.28;;;3.85;;
74369;SDS011;62805;44.644;10.942;2023-05-10T04:11:30;6.88;;;4.20;;
74369;SDS011;62805;44.644;10.942;2023-05-10T04:13:55;7.63;;;4.30;;
74369;SDS011;62805;44.644;10.942;2023-05-10T04:16:21;8.40;;;4.30;;
74369;SDS011;62805;44.644;10.942;2023-05-10T04:18:46;8.32;;;4.18;;
74369;SDS011;62805;44.644;10.942;2023-05-10T04:21:13;6.15;;;3.92;;
74369;SDS011;62805;44.644;10.942;2023-05-10T04:23:38;6.38;;;3.85;;
74369;SDS011;62805;44.644;10.942;2023-05-10T04:26:04;5.00;;;3.85;;
74369;SDS011;62805;44.644;10.942;2023-05-10T04:28:29;5.30;;;3.13;;
74369;SDS011;62805;44.644;10.942;2023-05-10T04:31:04;7.20;;;3.77;;
74369;SDS011;62805;44.644;10.942;2023-05-10T04:33:30;5.85;;;3.65;;
74369;SDS011;62805;44.644;10.942;2023-05-10T04:35:56;7.47;;;4.65;;
74369;SDS011;62805;44.644;10.942;2023-05-10T04:38:21;6.10;;;4.18;;
74369;SDS011;62805;44.644;10.942;2023-05-10T04:40:47;6.32;;;3.92;;
74369;SDS011;62805;44.644;10.942;2023-05-10T04:43:12;6.83;;;3.90;;
74369;SDS011;62805;44.644;10.942;2023-05-10T04:45:38;6.68;;;3.67;;
74369;SDS011;62805;44.644;10.942;2023-05-10T04:48:03;6.83;;;4.47;;
74369;SDS011;62805;44.644;10.942;2023-05-10T04:50:29;8.13;;;3.97;;
74369;SDS011;62805;44.644;10.942;2023-05-10T04:52:54;7.22;;;4.63;;
74369;SDS011;62805;44.644;10.942;2023-05-10T04:55:19;5.30;;;3.83;;
74369;SDS011;62805;44.644;10.942;2023-05-10T04:57:45;6.00;;;3.97;;
74369;SDS011;62805;44.644;10.942;2023-05-10T05:00:10;7.50;;;3.93;;
74369;SDS011;62805;44.644;10.942;2023-05-10T05:02:36;6.30;;;3.90;;
74369;SDS011;62805;44.644;10.942;2023-05-10T05:05:01;5.47;;;4.30;;
74369;SDS011;62805;44.644;10.942;2023-05-10T05:07:27;6.50;;;3.65;;
74369;SDS011;62805;44.644;10.942;2023-05-10T05:09:52;6.30;;;4.33;;
74369;SDS011;62805;44.644;10.942;2023-05-10T05:12:17;7.20;;;4.20;;
74369;SDS011;62805;44.644;10.942;2023-05-10T05:14:43;5.90;;;3.58;;
74369;SDS011;62805;44.644;10.942;2023-05-10T05:17:08;7.47;;;3.80;;
74369;SDS011;62805;44.644;10.942;2023-05-10T05:19:34;5.93;;;3.47;;
74369;SDS011;62805;44.644;10.942;2023-05-10T05:21:59;8.35;;;4.78;;
74369;SDS011;62805;44.644;10.942;2023-05-10T05:24:24;5.57;;;3.40;;
74369;SDS011;62805;44.644;10.942;2023-05-10T05:26:50;6.93;;;3.80;;
74369;SDS011;62805;44.644;10.942;2023-05-10T05:29:15;7.20;;;3.78;;
74369;SDS011;62805;44.644;10.942;2023-05-10T05:31:41;5.67;;;3.63;;
74369;SDS011;62805;44.644;10.942;2023-05-10T05:34:06;8.50;;;3.93;;
74369;SDS011;62805;44.644;10.942;2023-05-10T05:36:31;5.70;;;3.70;;
74369;SDS011;62805;44.644;10.942;2023-05-10T05:38:57;8.43;;;3.65;;
74369;SDS011;62805;44.644;10.942;2023-05-10T05:41:23;9.10;;;3.67;;
74369;SDS011;62805;44.644;10.942;2023-05-10T05:43:49;6.68;;;3.45;;
74369;SDS011;62805;44.644;10.942;2023-05-10T05:46:15;6.70;;;3.90;;
74369;SDS011;62805;44.644;10.942;2023-05-10T05:48:40;7.80;;;3.70;;
74369;SDS011;62805;44.644;10.942;2023-05-10T05:51:05;6.50;;;3.63;;
74369;SDS011;62805;44.644;10.942;2023-05-10T05:53:31;6.35;;;4.03;;
74369;SDS011;62805;44.644;10.942;2023-05-10T05:55:57;6.70;;;4.20;;
74369;SDS011;62805;44.644;10.942;2023-05-10T05:58:23;5.10;;;3.42;;
74369;SDS011;62805;44.644;10.942;2023-05-10T06:00:52;5.90;;;3.60;;
74369;SDS011;62805;44.644;10.942;2023-05-10T06:03:17;6.97;;;4.00;;
74369;SDS011;62805;44.644;10.942;2023-05-10T06:05:43;6.25;;;3.95;;
74369;SDS011;62805;44.644;10.942;2023-05-10T06:08:09;11.18;;;3.35;;
74369;SDS011;62805;44.644;10.942;2023-05-10T06:10:34;6.43;;;3.58;;
74369;SDS011;62805;44.644;10.942;2023-05-10T06:13:00;6.43;;;3.90;;
74369;SDS011;62805;44.644;10.942;2023-05-10T06:15:25;5.20;;;3.43;;
74369;SDS011;62805;44.644;10.942;2023-05-10T06:17:51;6.22;;;3.55;;
74369;SDS011;62805;44.644;10.942;2023-05-10T06:20:16;5.75;;;3.63;;
74369;SDS011;62805;44.644;10.942;2023-05-10T06:22:42;5.47;;;3.72;;
74369;SDS011;62805;44.644;10.942;2023-05-10T06:25:07;6.22;;;3.50;;
74369;SDS011;62805;44.644;10.942;2023-05-10T06:27:33;8.40;;;3.95;;
74369;SDS011;62805;44.644;10.942;2023-05-10T06:29:59;6.10;;;3.85;;
74369;SDS011;62805;44.644;10.942;2023-05-10T06:32:24;5.85;;;3.60;;
74369;SDS011;62805;44.644;10.942;2023-05-10T06:34:50;5.95;;;3.78;;
74369;SDS011;62805;44.644;10.942;2023-05-10T06:37:15;6.32;;;4.07;;
74369;SDS011;62805;44.644;10.942;2023-05-10T06:39:41;6.93;;;3.80;;
74369;SDS011;62805;44.644;10.942;2023-05-10T06:42:06;8.87;;;3.90;;
74369;SDS011;62805;44.644;10.942;2023-05-10T06:44:31;5.67;;;3.53;;
74369;SDS011;62805;44.644;10.942;2023-05-10T06:46:57;8.02;;;4.20;;
74369;SDS011;62805;44.644;10.942;2023-05-10T06:49:22;6.40;;;3.53;;
74369;SDS011;62805;44.644;10.942;2023-05-10T06:51:48;7.47;;;4.27;;
74369;SDS011;62805;44.644;10.942;2023-05-10T06:54:13;6.67;;;3.80;;
74369;SDS011;62805;44.644;10.942;2023-05-10T06:56:38;7.20;;;4.15;;
74369;SDS011;62805;44.644;10.942;2023-05-10T06:59:04;10.30;;;3.83;;
74369;SDS011;62805;44.644;10.942;2023-05-10T07:01:29;8.93;;;4.47;;
74369;SDS011;62805;44.644;10.942;2023-05-10T07:03:55;5.35;;;3.85;;
74369;SDS011;62805;44.644;10.942;2023-05-10T07:06:20;8.27;;;4.90;;
74369;SDS011;62805;44.644;10.942;2023-05-10T07:08:45;7.22;;;4.30;;
74369;SDS011;62805;44.644;10.942;2023-05-10T07:11:11;6.87;;;4.20;;
74369;SDS011;62805;44.644;10.942;2023-05-10T07:13:36;5.22;;;3.40;;
74369;SDS011;62805;44.644;10.942;2023-05-10T07:16:05;7.88;;;4.95;;
74369;SDS011;62805;44.644;10.942;2023-05-10T07:18:31;7.97;;;4.65;;
74369;SDS011;62805;44.644;10.942;2023-05-10T07:20:57;6.65;;;4.32;;
74369;SDS011;62805;44.644;10.942;2023-05-10T07:23:22;8.20;;;4.90;;
74369;SDS011;62805;44.644;10.942;2023-05-10T07:25:48;7.95;;;4.90;;
74369;SDS011;62805;44.644;10.942;2023-05-10T07:28:14;6.13;;;4.57;;
74369;SDS011;62805;44.644;10.942;2023-05-10T07:30:41;9.23;;;5.55;;
74369;SDS011;62805;44.644;10.942;2023-05-10T07:33:07;8.40;;;5.13;;
74369;SDS011;62805;44.644;10.942;2023-05-10T07:35:34;9.00;;;5.90;;
74369;SDS011;62805;44.644;10.942;2023-05-10T07:37:59;9.15;;;5.60;;
